sensor_id;sensor_type;location;lat;lon;timestamp;pressure;altitude;pressure_sealevel;temperature;humidity
72975;BME280;61166;54.228;37.632;2022-12-18T00:31:06;37234.28;;;-144.28;100.00
72975;BME280;61166;54.228;37.632;2022-12-18T00:33:34;-11427.31;;;-144.28;87.39
72975;BME280;61166;54.228;37.632;2022-12-18T00:36:06;-11427.31;;;-144.28;73.43
72975;BME280;61166;54.228;37.632;2022-12-18T00:38:34;-11427.31;;;-144.28;100.00
72975;BME280;61166;54.228;37.632;2022-12-18T00:41:01;-11427.31;;;-144.28;0.00
72975;BME280;61166;54.228;37.632;2022-12-18T00:50:48;20945.94;;;-144.28;68.12
72975;BME280;61166;54.228;37.632;2022-12-18T00:53:15;-11427.31;;;-144.28;0.00
72975;BME280;61166;54.228;37.632;2022-12-18T00:55:42;20945.94;;;-144.28;64.23
72975;BME280;61166;54.228;37.632;2022-12-18T01:10:23;98216.13;;;-0.04;nan
72975;BME280;61166;54.228;37.632;2022-12-18T02:02:00;98177.84;;;-0.09;nan
72975;BME280;61166;54.228;37.632;2022-12-18T02:29:59;98207.16;;;-0.24;nan
72975;BME280;61166;54.228;37.632;2022-12-18T02:32:31;98207.16;;;-0.32;nan
72975;BME280;61166;54.228;37.632;2022-12-18T02:35:03;98210.25;;;-0.41;nan
72975;BME280;61166;54.228;37.632;2022-12-18T02:42:26;98196.78;;;-0.72;nan
72975;BME280;61166;54.228;37.632;2022-12-18T03:02:45;98263.41;;;-1.03;nan
72975;BME280;61166;54.228;37.632;2022-12-18T03:05:26;98270.00;;;-1.00;nan
72975;BME280;61166;54.228;37.632;2022-12-18T03:10:34;98111.47;;;-2.17;nan
72975;BME280;61166;54.228;37.632;2022-12-18T03:13:20;98111.47;;;-2.08;nan
72975;BME280;61166;54.228;37.632;2022-12-18T03:41:06;98066.53;;;-4.13;nan
72975;BME280;61166;54.228;37.632;2022-12-18T03:51:42;98350.47;;;-1.60;nan
72975;BME280;61166;54.228;37.632;2022-12-18T03:54:11;98363.03;;;-1.65;nan
72975;BME280;61166;54.228;37.632;2022-12-18T03:56:44;98365.63;;;-1.57;nan
72975;BME280;61166;54.228;37.632;2022-12-18T03:59:12;98393.03;;;-1.56;nan
72975;BME280;61166;54.228;37.632;2022-12-18T04:01:46;98398.50;;;-1.59;nan
72975;BME280;61166;54.228;37.632;2022-12-18T04:04:15;98407.50;;;-1.63;nan
72975;BME280;61166;54.228;37.632;2022-12-18T04:06:43;98409.50;;;-1.83;nan
72975;BME280;61166;54.228;37.632;2022-12-18T04:09:12;98416.22;;;-1.90;nan
72975;BME280;61166;54.228;37.632;2022-12-18T04:11:40;98417.69;;;-1.87;nan
72975;BME280;61166;54.228;37.632;2022-12-18T04:14:07;98406.47;;;-2.04;nan
72975;BME280;61166;54.228;37.632;2022-12-18T04:16:39;98418.88;;;-2.00;nan
72975;BME280;61166;54.228;37.632;2022-12-18T04:19:06;98416.19;;;-2.16;nan
72975;BME280;61166;54.228;37.632;2022-12-18T04:21:32;98412.75;;;-2.24;nan
72975;BME280;61166;54.228;37.632;2022-12-18T04:23:59;98421.88;;;-2.30;nan
72975;BME280;61166;54.228;37.632;2022-12-18T04:26:25;98439.09;;;-2.30;nan
72975;BME280;61166;54.228;37.632;2022-12-18T04:28:52;98434.25;;;-2.34;nan
72975;BME280;61166;54.228;37.632;2022-12-18T04:31:19;98444.22;;;-2.30;nan
72975;BME280;61166;54.228;37.632;2022-12-18T04:33:45;98439.63;;;-2.45;nan
72975;BME280;61166;54.228;37.632;2022-12-18T04:36:12;98444.03;;;-2.37;nan
72975;BME280;61166;54.228;37.632;2022-12-18T04:38:38;98460.66;;;-2.49;nan
72975;BME280;61166;54.228;37.632;2022-12-18T04:41:05;98463.59;;;-2.44;nan
72975;BME280;61166;54.228;37.632;2022-12-18T04:43:31;98472.13;;;-2.44;nan
72975;BME280;61166;54.228;37.632;2022-12-18T04:46:03;98468.09;;;-2.46;nan
72975;BME280;61166;54.228;37.632;2022-12-18T04:48:30;98485.00;;;-2.44;nan
72975;BME280;61166;54.228;37.632;2022-12-18T04:50:56;98496.34;;;-2.44;nan
72975;BME280;61166;54.228;37.632;2022-12-18T04:53:23;98498.94;;;-2.37;nan
72975;BME280;61166;54.228;37.632;2022-12-18T04:55:49;98503.69;;;-2.42;nan
72975;BME280;61166;54.228;37.632;2022-12-18T04:58:16;98517.25;;;-2.40;nan
72975;BME280;61166;54.228;37.632;2022-12-18T05:00:43;98522.63;;;-2.33;nan
72975;BME280;61166;54.228;37.632;2022-12-18T05:03:09;98538.06;;;-2.33;nan
72975;BME280;61166;54.228;37.632;2022-12-18T05:05:36;98531.59;;;-2.37;nan
72975;BME280;61166;54.228;37.632;2022-12-18T05:08:02;98543.84;;;-2.31;nan
72975;BME280;61166;54.228;37.632;2022-12-18T05:10:30;98538.50;;;-2.38;nan
72975;BME280;61166;54.228;37.632;2022-12-18T05:13:04;98539.19;;;-2.36;nan
72975;BME280;61166;54.228;37.632;2022-12-18T05:15:32;98541.91;;;-2.37;nan
72975;BME280;61166;54.228;37.632;2022-12-18T05:17:59;98554.63;;;-2.36;nan
72975;BME280;61166;54.228;37.632;2022-12-18T05:20:26;98575.50;;;-2.39;nan
72975;BME280;61166;54.228;37.632;2022-12-18T05:22:54;98570.47;;;-2.58;nan
72975;BME280;61166;54.228;37.632;2022-12-18T05:25:21;98588.47;;;-2.58;nan
72975;BME280;61166;54.228;37.632;2022-12-18T05:27:48;98598.63;;;-2.56;nan
72975;BME280;61166;54.228;37.632;2022-12-18T05:30:15;98601.88;;;-2.54;nan
72975;BME280;61166;54.228;37.632;2022-12-18T05:32:42;98605.16;;;-2.62;nan
72975;BME280;61166;54.228;37.632;2022-12-18T05:35:10;98607.47;;;-2.69;nan
72975;BME280;61166;54.228;37.632;2022-12-18T05:37:37;98610.34;;;-2.72;nan
72975;BME280;61166;54.228;37.632;2022-12-18T05:40:09;98609.28;;;-2.79;nan
72975;BME280;61166;54.228;37.632;2022-12-18T05:42:36;98620.53;;;-2.80;nan
72975;BME280;61166;54.228;37.632;2022-12-18T05:45:03;98624.19;;;-2.82;nan
72975;BME280;61166;54.228;37.632;2022-12-18T05:47:30;98644.69;;;-2.90;nan
72975;BME280;61166;54.228;37.632;2022-12-18T05:49:57;98655.13;;;-2.92;nan
72975;BME280;61166;54.228;37.632;2022-12-18T05:52:23;98649.16;;;-2.92;nan
72975;BME280;61166;54.228;37.632;2022-12-18T05:54:50;98666.09;;;-2.90;nan
72975;BME280;61166;54.228;37.632;2022-12-18T05:57:16;98674.31;;;-2.86;nan
72975;BME280;61166;54.228;37.632;2022-12-18T05:59:43;98686.22;;;-2.85;nan
72975;BME280;61166;54.228;37.632;2022-12-18T06:02:10;98697.09;;;-2.91;nan
72975;BME280;61166;54.228;37.632;2022-12-18T06:04:36;98703.47;;;-2.95;nan
72975;BME280;61166;54.228;37.632;2022-12-18T06:07:03;98702.25;;;-2.91;nan
72975;BME280;61166;54.228;37.632;2022-12-18T06:09:30;98706.56;;;-2.92;nan
72975;BME280;61166;54.228;37.632;2022-12-18T06:11:56;98716.06;;;-2.92;nan
72975;BME280;61166;54.228;37.632;2022-12-18T06:14:23;98719.31;;;-2.90;nan
72975;BME280;61166;54.228;37.632;2022-12-18T06:16:50;98716.19;;;-3.13;nan
72975;BME280;61166;54.228;37.632;2022-12-18T06:19:17;98722.56;;;-3.17;nan
72975;BME280;61166;54.228;37.632;2022-12-18T06:21:44;98736.09;;;-3.15;nan
72975;BME280;61166;54.228;37.632;2022-12-18T06:24:10;98736.22;;;-3.17;nan
72975;BME280;61166;54.228;37.632;2022-12-18T06:26:38;98746.50;;;-3.17;nan
72975;BME280;61166;54.228;37.632;2022-12-18T06:29:05;98748.16;;;-3.06;nan
72975;BME280;61166;54.228;37.632;2022-12-18T06:31:32;98740.97;;;-3.03;nan
72975;BME280;61166;54.228;37.632;2022-12-18T06:34:01;98751.94;;;-3.01;nan
72975;BME280;61166;54.228;37.632;2022-12-18T06:36:30;98756.94;;;-3.09;nan
72975;BME280;61166;54.228;37.632;2022-12-18T06:38:56;98773.47;;;-3.02;nan
72975;BME280;61166;54.228;37.632;2022-12-18T06:41:23;98776.56;;;-3.08;nan
72975;BME280;61166;54.228;37.632;2022-12-18T06:43:50;98809.22;;;-2.98;nan
72975;BME280;61166;54.228;37.632;2022-12-18T06:46:21;98790.41;;;-2.89;nan
72975;BME280;61166;54.228;37.632;2022-12-18T06:48:48;98829.50;;;-2.86;nan
72975;BME280;61166;54.228;37.632;2022-12-18T06:51:20;98805.41;;;-2.85;nan
72975;BME280;61166;54.228;37.632;2022-12-18T06:53:47;98805.66;;;-2.78;nan
72975;BME280;61166;54.228;37.632;2022-12-18T06:56:14;98820.16;;;-2.77;nan
72975;BME280;61166;54.228;37.632;2022-12-18T06:58:40;98820.03;;;-2.66;nan
72975;BME280;61166;54.228;37.632;2022-12-18T07:01:10;98830.06;;;-2.63;nan
72975;BME280;61166;54.228;37.632;2022-12-18T07:03:42;98835.47;;;-2.66;nan
72975;BME280;61166;54.228;37.632;2022-12-18T07:06:15;98848.06;;;-2.63;nan
72975;BME280;61166;54.228;37.632;2022-12-18T07:08:42;98847.66;;;-2.68;nan
72975;BME280;61166;54.228;37.632;2022-12-18T07:11:09;98859.84;;;-2.80;nan
72975;BME280;61166;54.228;37.632;2022-12-18T07:13:36;98873.25;;;-2.76;nan
72975;BME280;61166;54.228;37.632;2022-12-18T07:16:12;98853.50;;;-2.95;nan
72975;BME280;61166;54.228;37.632;2022-12-18T07:18:48;98845.22;;;-2.98;nan
72975;BME280;61166;54.228;37.632;2022-12-18T07:21:18;98857.28;;;-2.99;nan
72975;BME280;61166;54.228;37.632;2022-12-18T07:23:45;98866.78;;;-2.90;nan
72975;BME280;61166;54.228;37.632;2022-12-18T07:26:13;98874.91;;;-2.94;nan
72975;BME280;61166;54.228;37.632;2022-12-18T07:28:40;98899.25;;;-2.98;nan
72975;BME280;61166;54.228;37.632;2022-12-18T07:31:10;98882.59;;;-2.94;nan
72975;BME280;61166;54.228;37.632;2022-12-18T07:33:37;98892.22;;;-2.87;nan
72975;BME280;61166;54.228;37.632;2022-12-18T07:36:07;98903.19;;;-2.85;nan
72975;BME280;61166;54.228;37.632;2022-12-18T07:38:35;98892.50;;;-2.90;nan
72975;BME280;61166;54.228;37.632;2022-12-18T07:41:03;98887.34;;;-2.90;nan
72975;BME280;61166;54.228;37.632;2022-12-18T07:43:32;98894.94;;;-2.98;nan
72975;BME280;61166;54.228;37.632;2022-12-18T07:45:59;98916.84;;;-3.04;nan
72975;BME280;61166;54.228;37.632;2022-12-18T07:48:27;98918.75;;;-2.96;nan
72975;BME280;61166;54.228;37.632;2022-12-18T07:51:01;98922.84;;;-2.93;nan
72975;BME280;61166;54.228;37.632;2022-12-18T07:53:28;98914.69;;;-2.79;nan
72975;BME280;61166;54.228;37.632;2022-12-18T07:56:03;98908.91;;;-2.72;nan
72975;BME280;61166;54.228;37.632;2022-12-18T07:58:51;98919.16;;;-2.81;nan
72975;BME280;61166;54.228;37.632;2022-12-18T08:01:17;98920.00;;;-2.90;nan
72975;BME280;61166;54.228;37.632;2022-12-18T08:03:44;98920.25;;;-2.93;nan
72975;BME280;61166;54.228;37.632;2022-12-18T08:06:10;98924.31;;;-2.91;nan
72975;BME280;61166;54.228;37.632;2022-12-18T08:08:37;98943.13;;;-3.00;nan
72975;BME280;61166;54.228;37.632;2022-12-18T08:11:04;98944.19;;;-3.03;nan
72975;BME280;61166;54.228;37.632;2022-12-18T08:13:31;98976.00;;;-3.04;nan
72975;BME280;61166;54.228;37.632;2022-12-18T08:16:06;98958.94;;;-3.05;nan
72975;BME280;61166;54.228;37.632;2022-12-18T08:18:34;98966.78;;;-3.06;nan
72975;BME280;61166;54.228;37.632;2022-12-18T08:21:09;98973.16;;;-3.10;nan
72975;BME280;61166;54.228;37.632;2022-12-18T08:23:36;98970.28;;;-3.17;nan
72975;BME280;61166;54.228;37.632;2022-12-18T08:26:09;98971.13;;;-3.07;nan
72975;BME280;61166;54.228;37.632;2022-12-18T08:28:35;98984.97;;;-2.98;nan
72975;BME280;61166;54.228;37.632;2022-12-18T08:31:02;98989.59;;;-2.92;nan
72975;BME280;61166;54.228;37.632;2022-12-18T08:33:29;98995.44;;;-2.90;nan
72975;BME280;61166;54.228;37.632;2022-12-18T08:35:58;99001.47;;;-3.01;nan
72975;BME280;61166;54.228;37.632;2022-12-18T08:38:25;99008.50;;;-3.03;nan
72975;BME280;61166;54.228;37.632;2022-12-18T08:41:05;99003.38;;;-3.03;nan
72975;BME280;61166;54.228;37.632;2022-12-18T08:43:33;99019.41;;;-2.89;nan
72975;BME280;61166;54.228;37.632;2022-12-18T08:45:59;99014.53;;;-2.83;nan
72975;BME280;61166;54.228;37.632;2022-12-18T08:48:26;99024.97;;;-3.15;nan
72975;BME280;61166;54.228;37.632;2022-12-18T08:50:59;99027.22;;;-3.01;nan
72975;BME280;61166;54.228;37.632;2022-12-18T08:53:26;99043.50;;;-2.90;nan
72975;BME280;61166;54.228;37.632;2022-12-18T08:56:00;99040.38;;;-2.84;nan
72975;BME280;61166;54.228;37.632;2022-12-18T08:58:27;99042.00;;;-2.83;nan
72975;BME280;61166;54.228;37.632;2022-12-18T09:00:53;99034.97;;;-2.81;nan
72975;BME280;61166;54.228;37.632;2022-12-18T09:03:20;99040.63;;;-2.87;nan
72975;BME280;61166;54.228;37.632;2022-12-18T09:05:48;99038.88;;;-2.87;nan
72975;BME280;61166;54.228;37.632;2022-12-18T09:08:14;99041.81;;;-3.01;nan
72975;BME280;61166;54.228;37.632;2022-12-18T09:10:45;99044.56;;;-2.93;nan
72975;BME280;61166;54.228;37.632;2022-12-18T09:13:13;99050.78;;;-2.95;nan
72975;BME280;61166;54.228;37.632;2022-12-18T09:15:47;99063.91;;;-2.98;nan
72975;BME280;61166;54.228;37.632;2022-12-18T09:18:16;99058.25;;;-2.92;nan
72975;BME280;61166;54.228;37.632;2022-12-18T09:20:43;99067.50;;;-2.80;nan
72975;BME280;61166;54.228;37.632;2022-12-18T09:23:10;99065.47;;;-2.77;nan
72975;BME280;61166;54.228;37.632;2022-12-18T09:25:37;99074.44;;;-2.77;nan
72975;BME280;61166;54.228;37.632;2022-12-18T09:28:16;99074.06;;;-2.71;nan
72975;BME280;61166;54.228;37.632;2022-12-18T09:30:45;99080.06;;;-2.87;nan
72975;BME280;61166;54.228;37.632;2022-12-18T09:33:13;99082.50;;;-2.87;nan
72975;BME280;61166;54.228;37.632;2022-12-18T09:35:41;99084.94;;;-2.85;nan
72975;BME280;61166;54.228;37.632;2022-12-18T09:38:11;99086.97;;;-2.84;nan
72975;BME280;61166;54.228;37.632;2022-12-18T09:40:47;99100.25;;;-2.87;nan
72975;BME280;61166;54.228;37.632;2022-12-18T09:43:20;99101.94;;;-2.72;nan
72975;BME280;61166;54.228;37.632;2022-12-18T09:45:52;99106.34;;;-2.72;nan
72975;BME280;61166;54.228;37.632;2022-12-18T09:48:23;99105.59;;;-2.83;nan
72975;BME280;61166;54.228;37.632;2022-12-18T09:50:57;99114.94;;;-2.74;nan
72975;BME280;61166;54.228;37.632;2022-12-18T09:53:28;99132.38;;;-2.77;nan
72975;BME280;61166;54.228;37.632;2022-12-18T09:55:57;99108.59;;;-2.69;nan
72975;BME280;61166;54.228;37.632;2022-12-18T09:58:32;99106.31;;;-2.62;nan
72975;BME280;61166;54.228;37.632;2022-12-18T10:01:01;99110.66;;;-2.63;nan
72975;BME280;61166;54.228;37.632;2022-12-18T10:03:28;99104.50;;;-2.72;nan
72975;BME280;61166;54.228;37.632;2022-12-18T10:06:08;99109.09;;;-2.75;nan
72975;BME280;61166;54.228;37.632;2022-12-18T10:14:30;99123.28;;;-2.90;nan
72975;BME280;61166;54.228;37.632;2022-12-18T10:19:47;99126.09;;;-2.93;nan
72975;BME280;61166;54.228;37.632;2022-12-18T10:27:46;99133.72;;;-2.82;nan
72975;BME280;61166;54.228;37.632;2022-12-18T10:30:17;99132.47;;;-2.88;nan
72975;BME280;61166;54.228;37.632;2022-12-18T10:32:44;99132.69;;;-3.01;nan
72975;BME280;61166;54.228;37.632;2022-12-18T10:35:25;99146.81;;;-2.95;nan
72975;BME280;61166;54.228;37.632;2022-12-18T10:43:35;99150.94;;;-3.24;nan
72975;BME280;61166;54.228;37.632;2022-12-18T10:51:07;99173.97;;;-3.23;nan
72975;BME280;61166;54.228;37.632;2022-12-18T10:53:40;99176.28;;;-3.20;nan
72975;BME280;61166;54.228;37.632;2022-12-18T10:56:08;99175.47;;;-3.20;nan
72975;BME280;61166;54.228;37.632;2022-12-18T10:58:37;99179.56;;;-3.18;nan
72975;BME280;61166;54.228;37.632;2022-12-18T11:01:12;99186.19;;;-3.15;nan
72975;BME280;61166;54.228;37.632;2022-12-18T11:03:45;99187.50;;;-3.21;nan
72975;BME280;61166;54.228;37.632;2022-12-18T11:06:18;99198.50;;;-3.19;nan
72975;BME280;61166;54.228;37.632;2022-12-18T11:09:01;99205.75;;;-3.24;nan
72975;BME280;61166;54.228;37.632;2022-12-18T11:11:38;99203.44;;;-3.27;nan
72975;BME280;61166;54.228;37.632;2022-12-18T11:14:12;99206.34;;;-3.20;nan
72975;BME280;61166;54.228;37.632;2022-12-18T11:16:44;99206.91;;;-3.17;nan
72975;BME280;61166;54.228;37.632;2022-12-18T11:19:39;99208.03;;;-3.10;nan
72975;BME280;61166;54.228;37.632;2022-12-18T11:22:27;99212.50;;;-3.12;nan
72975;BME280;61166;54.228;37.632;2022-12-18T11:27:51;99219.97;;;-3.09;nan
72975;BME280;61166;54.228;37.632;2022-12-18T11:30:28;99222.34;;;-3.17;nan
72975;BME280;61166;54.228;37.632;2022-12-18T11:33:19;99226.78;;;-3.19;nan
72975;BME280;61166;54.228;37.632;2022-12-18T11:36:01;99230.25;;;-3.09;nan
72975;BME280;61166;54.228;37.632;2022-12-18T11:43:55;99245.53;;;-3.28;nan
72975;BME280;61166;54.228;37.632;2022-12-18T11:46:26;99245.56;;;-3.39;nan
72975;BME280;61166;54.228;37.632;2022-12-18T11:49:10;99249.50;;;-3.35;nan
72975;BME280;61166;54.228;37.632;2022-12-18T11:51:51;99249.03;;;-3.29;nan
72975;BME280;61166;54.228;37.632;2022-12-18T11:54:21;99260.47;;;-3.22;nan
72975;BME280;61166;54.228;37.632;2022-12-18T11:56:56;99260.22;;;-3.19;nan
72975;BME280;61166;54.228;37.632;2022-12-18T11:59:30;99267.38;;;-3.22;nan
72975;BME280;61166;54.228;37.632;2022-12-18T12:02:04;99273.31;;;-3.22;nan
72975;BME280;61166;54.228;37.632;2022-12-18T12:09:56;99286.09;;;-3.32;nan
72975;BME280;61166;54.228;37.632;2022-12-18T12:15:44;99292.53;;;-3.37;nan
72975;BME280;61166;54.228;37.632;2022-12-18T12:20:55;99300.59;;;-3.42;nan
72975;BME280;61166;54.228;37.632;2022-12-18T12:26:38;99304.69;;;-3.39;nan
72975;BME280;61166;54.228;37.632;2022-12-18T12:29:34;99311.69;;;-3.30;nan
72975;BME280;61166;54.228;37.632;2022-12-18T12:32:10;99321.75;;;-3.27;nan
72975;BME280;61166;54.228;37.632;2022-12-18T12:39:47;99331.09;;;-3.26;nan
72975;BME280;61166;54.228;37.632;2022-12-18T12:42:23;99340.69;;;-3.28;nan
72975;BME280;61166;54.228;37.632;2022-12-18T12:44:55;99341.38;;;-3.26;nan
72975;BME280;61166;54.228;37.632;2022-12-18T12:47:27;99352.84;;;-3.30;nan
72975;BME280;61166;54.228;37.632;2022-12-18T12:49:58;99353.78;;;-3.31;nan
72975;BME280;61166;54.228;37.632;2022-12-18T12:52:31;99358.91;;;-3.31;nan
72975;BME280;61166;54.228;37.632;2022-12-18T12:55:02;99362.44;;;-3.32;nan
72975;BME280;61166;54.228;37.632;2022-12-18T12:57:41;99364.75;;;-3.40;nan
72975;BME280;61166;54.228;37.632;2022-12-18T13:00:16;99379.25;;;-3.39;nan
72975;BME280;61166;54.228;37.632;2022-12-18T13:05:50;99377.63;;;-3.29;nan
72975;BME280;61166;54.228;37.632;2022-12-18T13:08:24;99386.03;;;-3.27;nan
72975;BME280;61166;54.228;37.632;2022-12-18T13:10:57;99396.09;;;-3.35;nan
72975;BME280;61166;54.228;37.632;2022-12-18T13:13:25;99396.31;;;-3.38;nan
72975;BME280;61166;54.228;37.632;2022-12-18T13:16:06;99404.03;;;-3.38;nan
72975;BME280;61166;54.228;37.632;2022-12-18T13:18:34;99414.56;;;-3.30;nan
72975;BME280;61166;54.228;37.632;2022-12-18T13:21:05;99402.75;;;-3.44;nan
72975;BME280;61166;54.228;37.632;2022-12-18T13:23:38;99415.59;;;-3.33;nan
72975;BME280;61166;54.228;37.632;2022-12-18T13:31:00;99419.94;;;-3.33;nan
72975;BME280;61166;54.228;37.632;2022-12-18T13:33:41;99425.69;;;-3.52;nan
72975;BME280;61166;54.228;37.632;2022-12-18T13:36:31;99452.41;;;-3.43;nan
72975;BME280;61166;54.228;37.632;2022-12-18T13:44:37;99431.63;;;-3.29;nan
72975;BME280;61166;54.228;37.632;2022-12-18T13:47:34;99430.69;;;-3.28;nan
72975;BME280;61166;54.228;37.632;2022-12-18T13:50:22;99440.84;;;-3.26;nan
72975;BME280;61166;54.228;37.632;2022-12-18T13:52:50;99447.75;;;-3.38;nan
72975;BME280;61166;54.228;37.632;2022-12-18T13:55:19;99448.44;;;-3.36;nan
72975;BME280;61166;54.228;37.632;2022-12-18T13:57:47;99461.44;;;-3.38;nan
72975;BME280;61166;54.228;37.632;2022-12-18T14:00:28;99465.53;;;-3.35;nan
72975;BME280;61166;54.228;37.632;2022-12-18T14:02:56;99464.34;;;-3.31;nan
72975;BME280;61166;54.228;37.632;2022-12-18T14:05:26;99473.00;;;-3.32;nan
72975;BME280;61166;54.228;37.632;2022-12-18T14:07:54;99467.28;;;-3.47;nan
72975;BME280;61166;54.228;37.632;2022-12-18T14:10:22;99482.72;;;-3.47;nan
72975;BME280;61166;54.228;37.632;2022-12-18T14:13:10;99481.31;;;-3.51;nan
72975;BME280;61166;54.228;37.632;2022-12-18T14:15:46;99481.53;;;-3.54;nan
72975;BME280;61166;54.228;37.632;2022-12-18T14:20:43;99488.88;;;-3.60;nan
72975;BME280;61166;54.228;37.632;2022-12-18T14:25:54;99490.19;;;-3.55;nan
72975;BME280;61166;54.228;37.632;2022-12-18T14:28:26;99499.16;;;-3.60;nan
72975;BME280;61166;54.228;37.632;2022-12-18T14:30:53;99495.19;;;-3.64;nan
72975;BME280;61166;54.228;37.632;2022-12-18T14:33:22;99511.88;;;-3.70;nan
72975;BME280;61166;54.228;37.632;2022-12-18T14:38:39;99511.72;;;-3.80;nan
72975;BME280;61166;54.228;37.632;2022-12-18T14:41:14;99525.00;;;-3.86;nan
72975;BME280;61166;54.228;37.632;2022-12-18T14:43:46;99513.66;;;-3.94;nan
72975;BME280;61166;54.228;37.632;2022-12-18T14:49:02;99522.44;;;-3.86;nan
72975;BME280;61166;54.228;37.632;2022-12-18T14:51:31;99526.06;;;-3.88;nan
72975;BME280;61166;54.228;37.632;2022-12-18T14:54:03;99531.47;;;-3.80;nan
72975;BME280;61166;54.228;37.632;2022-12-18T14:56:33;99526.84;;;-3.99;nan
72975;BME280;61166;54.228;37.632;2022-12-18T14:59:05;99525.94;;;-3.87;nan
72975;BME280;61166;54.228;37.632;2022-12-18T15:04:37;99550.22;;;-3.91;nan
72975;BME280;61166;54.228;37.632;2022-12-18T15:07:11;99549.25;;;-4.01;nan
72975;BME280;61166;54.228;37.632;2022-12-18T15:09:41;99554.06;;;-3.96;nan
72975;BME280;61166;54.228;37.632;2022-12-18T15:12:34;99562.13;;;-3.90;nan
72975;BME280;61166;54.228;37.632;2022-12-18T15:15:04;99567.28;;;-3.90;nan
72975;BME280;61166;54.228;37.632;2022-12-18T15:17:31;99566.34;;;-3.89;nan
72975;BME280;61166;54.228;37.632;2022-12-18T15:20:01;99571.00;;;-3.94;nan
72975;BME280;61166;54.228;37.632;2022-12-18T15:22:31;99584.00;;;-3.84;nan
72975;BME280;61166;54.228;37.632;2022-12-18T15:25:00;99583.13;;;-3.96;nan
72975;BME280;61166;54.228;37.632;2022-12-18T15:27:31;99585.81;;;-3.97;nan
72975;BME280;61166;54.228;37.632;2022-12-18T15:30:16;99603.25;;;-3.90;nan
72975;BME280;61166;54.228;37.632;2022-12-18T15:32:44;99591.53;;;-4.05;nan
72975;BME280;61166;54.228;37.632;2022-12-18T15:35:21;99596.69;;;-3.94;nan
72975;BME280;61166;54.228;37.632;2022-12-18T15:37:49;99600.19;;;-3.95;nan
72975;BME280;61166;54.228;37.632;2022-12-18T15:40:21;99602.44;;;-3.90;nan
72975;BME280;61166;54.228;37.632;2022-12-18T15:42:50;99602.44;;;-3.90;nan
72975;BME280;61166;54.228;37.632;2022-12-18T15:45:18;99607.84;;;-4.06;nan
72975;BME280;61166;54.228;37.632;2022-12-18T15:47:45;99610.19;;;-4.03;nan
72975;BME280;61166;54.228;37.632;2022-12-18T15:50:11;99614.78;;;-3.95;nan
72975;BME280;61166;54.228;37.632;2022-12-18T15:52:43;99646.00;;;-3.95;nan
72975;BME280;61166;54.228;37.632;2022-12-18T15:55:12;99613.97;;;-3.96;nan
72975;BME280;61166;54.228;37.632;2022-12-18T15:57:39;99624.25;;;-3.96;nan
72975;BME280;61166;54.228;37.632;2022-12-18T16:00:11;99624.72;;;-3.91;nan
72975;BME280;61166;54.228;37.632;2022-12-18T16:02:37;99623.63;;;-4.00;nan
72975;BME280;61166;54.228;37.632;2022-12-18T16:05:12;99638.00;;;-3.97;nan
72975;BME280;61166;54.228;37.632;2022-12-18T16:07:40;99642.00;;;-3.93;nan
72975;BME280;61166;54.228;37.632;2022-12-18T16:10:07;99638.41;;;-3.90;nan
72975;BME280;61166;54.228;37.632;2022-12-18T16:12:34;99641.69;;;-3.88;nan
72975;BME280;61166;54.228;37.632;2022-12-18T16:15:04;99647.00;;;-3.79;nan
72975;BME280;61166;54.228;37.632;2022-12-18T16:17:31;99664.47;;;-3.84;nan
72975;BME280;61166;54.228;37.632;2022-12-18T16:19:58;99669.91;;;-3.76;nan
72975;BME280;61166;54.228;37.632;2022-12-18T16:22:28;99679.78;;;-3.82;nan
72975;BME280;61166;54.228;37.632;2022-12-18T16:24:56;99672.84;;;-3.93;nan
72975;BME280;61166;54.228;37.632;2022-12-18T16:27:24;99678.31;;;-3.74;nan
72975;BME280;61166;54.228;37.632;2022-12-18T16:29:50;99689.53;;;-3.75;nan
72975;BME280;61166;54.228;37.632;2022-12-18T16:32:19;99688.53;;;-3.85;nan
72975;BME280;61166;54.228;37.632;2022-12-18T16:34:49;99686.59;;;-3.94;nan
72975;BME280;61166;54.228;37.632;2022-12-18T16:37:16;99687.59;;;-3.84;nan
72975;BME280;61166;54.228;37.632;2022-12-18T16:39:43;99698.59;;;-3.82;nan
72975;BME280;61166;54.228;37.632;2022-12-18T16:44:37;99702.91;;;-3.82;nan
72975;BME280;61166;54.228;37.632;2022-12-18T16:47:03;99712.66;;;-3.75;nan
72975;BME280;61166;54.228;37.632;2022-12-18T16:49:31;99703.72;;;-3.69;nan
72975;BME280;61166;54.228;37.632;2022-12-18T16:52:02;99708.66;;;-3.79;nan
72975;BME280;61166;54.228;37.632;2022-12-18T16:54:28;99710.59;;;-3.70;nan
72975;BME280;61166;54.228;37.632;2022-12-18T16:56:56;99748.50;;;-3.70;nan
72975;BME280;61166;54.228;37.632;2022-12-18T16:59:23;99725.81;;;-3.67;nan
72975;BME280;61166;54.228;37.632;2022-12-18T17:01:49;99730.94;;;-3.67;nan
72975;BME280;61166;54.228;37.632;2022-12-18T17:04:16;99748.13;;;-3.67;nan
72975;BME280;61166;54.228;37.632;2022-12-18T17:06:44;99760.34;;;-3.71;nan
72975;BME280;61166;54.228;37.632;2022-12-18T17:09:13;99736.19;;;-3.68;nan
72975;BME280;61166;54.228;37.632;2022-12-18T17:11:39;99746.09;;;-3.87;nan
72975;BME280;61166;54.228;37.632;2022-12-18T17:14:10;99762.03;;;-3.95;nan
72975;BME280;61166;54.228;37.632;2022-12-18T17:16:38;99756.56;;;-3.78;nan
72975;BME280;61166;54.228;37.632;2022-12-18T17:19:05;99765.41;;;-3.69;nan
72975;BME280;61166;54.228;37.632;2022-12-18T17:21:47;99763.78;;;-3.83;nan
72975;BME280;61166;54.228;37.632;2022-12-18T17:24:14;99769.13;;;-3.86;nan
72975;BME280;61166;54.228;37.632;2022-12-18T17:26:42;99762.75;;;-3.93;nan
72975;BME280;61166;54.228;37.632;2022-12-18T17:29:12;99772.31;;;-3.95;nan
72975;BME280;61166;54.228;37.632;2022-12-18T17:31:39;99776.03;;;-3.99;nan
72975;BME280;61166;54.228;37.632;2022-12-18T17:34:08;99781.66;;;-3.94;nan
72975;BME280;61166;54.228;37.632;2022-12-18T17:36:34;99786.19;;;-3.97;nan
72975;BME280;61166;54.228;37.632;2022-12-18T17:39:03;99798.72;;;-3.93;nan
72975;BME280;61166;54.228;37.632;2022-12-18T17:41:30;99793.19;;;-4.00;nan
72975;BME280;61166;54.228;37.632;2022-12-18T17:43:59;99804.38;;;-4.01;nan
72975;BME280;61166;54.228;37.632;2022-12-18T17:46:27;99807.88;;;-3.89;nan
72975;BME280;61166;54.228;37.632;2022-12-18T17:48:57;99807.97;;;-3.78;nan
72975;BME280;61166;54.228;37.632;2022-12-18T17:51:24;99811.56;;;-3.80;nan